Tiempo atmosférico en la estación meteorológica de Villamayor de los Montes, Burgos (882 m.)



Fecha
DESCASC
Temp. máxima en grados centígrados (hora)
DESCASC
Temp. mínima en grados centígrados (hora)
DESCASC
Temp. media en grados centígrados
DESCASC
Racha de viento máxima en m/sg (hora)
DESCASC
Velocidad máxima media en intervalos de 10 minutos(hora)
DESCASC
Precipitaciones diarias en mm
DESCASC
Precipitaciones de 00:00 a 06:00 en mm
DESCASC
Precipitaciones de 06:00 a 12:00 en mm
DESCASC
Precipitaciones de 12:00 a 18:00 en mm
DESCASC
Precipitaciones de 18:00 a 24:00 en mm
DESCASC
06-12-2018 8.7 (15:50) 4.4 (00:00) 6.5 4.72 (15:40) 3.33 (01:50) 0 0 0 0 0
05-12-2018 15.2 (15:10) 2.2 (08:50) 8.7 7.5 (15:30) 4.44 (14:30) 0 0 0 0 0
04-12-2018 14.1 (16:00) 6 (23:59) 10.1 3.89 (11:40) 2.5 (11:40) 0 0 0 0 0
03-12-2018 10.1 (17:10) 5.9 (00:00) 8 6.67 (10:50) 5 (14:40) 0.2 0 0 0 0.2
02-12-2018 9.4 (16:50) 5.3 (00:00) 7.3 8.61 (17:10) 5.56 (11:40) 0 0 0 0 0
01-12-2018 7.9 (16:10) 2.3 (00:00) 5.1 8.06 (13:10) 5.28 (15:40) 0 0 0 0 0
30-11-2018 6 (16:00) 0.7 (00:00) 3.3 6.39 (05:30) 3.61 (23:50) 0.2 0.2 0 0 0
29-11-2018 12.2 (13:00) 1.7 (00:00) 6.9 11.67 (20:10) 8.33 (20:10) 9.8 0 0 2.6 7.2
28-11-2018 11 (14:50) 2.3 (00:00) 6.6 8.06 (15:10) 4.72 (14:30) 0 0 0 0 0
27-11-2018 8.7 (15:20) 0.6 (00:00) 4.6 6.39 (23:10) 4.17 (23:10) 0 0 0 0 0
26-11-2018 9.1 (16:30) 2 (23:59) 5.6 12.78 (04:40) 6.39 (04:40) 3.2 2.8 0.4 0 0
25-11-2018 10.6 (15:00) 5.4 (00:00) 8 14.17 (03:10) 8.89 (04:10) 4 1.2 0.4 0 2.4
24-11-2018 8.6 (16:40) 4 (00:00) 6.3 11.67 (23:20) 7.78 (22:50) 0.4 0 0 0 0.4
23-11-2018 7.5 (15:00) 3.7 (00:00) 5.6 11.11 (15:10) 6.11 (12:40) 9.6 8.4 1.2 0 0
22-11-2018 8.5 (15:10) 3.5 (00:00) 6 7.78 (03:10) 5 (02:40) 0 0 0 0 0
21-11-2018 9.6 (15:00) 4.5 (00:00) 7.1 13.33 (15:10) 8.33 (15:10) 4.6 3.4 0.4 0.8 0
20-11-2018 7.4 (06:40) 4.8 (00:00) 6.1 12.78 (19:00) 5 (17:00) 9.6 4.2 1.2 4.2 0
19-11-2018 10.3 (15:10) 4.9 (00:00) 7.6 9.72 (00:30) 5.56 (00:50) 0.6 0.6 0 0 0
18-11-2018 13.5 (13:30) 5 (00:00) 9.3 11.39 (22:00) 6.39 (13:40) 1.4 0 0 0 1.4
17-11-2018 15.5 (15:00) 6.2 (00:00) 10.8 9.17 (11:10) 6.11 (12:10) 0 0 0 0 0
16-11-2018 16.3 (14:10) 6.5 (00:00) 11.4 6.11 (16:10) 3.89 (16:00) 0 0 0 0 0
15-11-2018 16.7 (14:40) 8.4 (00:00) 12.6 6.94 (01:00) 4.72 (11:50) 0 0 0 0 0
14-11-2018 16.2 (14:40) 2.3 (00:00) 9.3 7.22 (13:50) 5 (14:10) 0 0 0 0 0
13-11-2018 15.1 (15:30) 4.8 (00:00) 10 5.83 (10:00) 3.89 (10:00) 0 0 0 0 0
12-11-2018 11.8 (15:30) 7.6 (00:00) 9.7 8.06 (00:10) 5 (12:30) 4 2.4 0.2 0.6 0.8
11-11-2018 12.8 (13:00) 7.9 (00:00) 10.4 11.11 (14:50) 8.06 (14:50) 1.2 0 0 1.2 0
10-11-2018 11.9 (16:50) 7.8 (00:00) 9.8 15.83 (07:10) 10 (07:30) 1.6 0 0.2 1.4 0

Gráficas

Temp. máximas Temp. mínimas Temp. medias Precipitaciones Rachas de viento máximas Velocidades máximas media en intervalos de 10 minutos

Datos horarios

Fecha y hora oficial Temperatura (ºC) Velocidad del viento (km/h) Dirección del viento Racha (km/h) Dirección de racha Precipitación (mm) Presión (hPa) Tendencia (hPa) Humedad (%)
2018-12-09 23:00:00 3.6 7 Nordeste 13 Nordeste 0 -- -- 93
2018-12-09 22:00:00 4.1 9 Norte 16 Norte 0 -- -- 91
2018-12-09 21:00:00 4.8 8 Norte 13 Norte 0 -- -- 90
2018-12-09 20:00:00 6.1 6 Nordeste 12 Este 0 -- -- 86
2018-12-09 19:00:00 7.2 10 Nordeste 18 Nordeste 0 -- -- 83
2018-12-09 18:00:00 8.3 5 Nordeste 13 Norte 0 -- -- 86
2018-12-09 17:00:00 11.1 5 Noroeste 10 Norte 0 -- -- 77
2018-12-09 16:00:00 12 6 Norte 10 Noroeste 0 -- -- 73
2018-12-09 15:00:00 12.4 4 Sudoeste 11 Sudoeste 0 -- -- 66
2018-12-09 14:00:00 11 2 Noroeste 9 Sudoeste 0 -- -- 76
2018-12-09 13:00:00 9.3 3 Sudoeste 12 Oeste 0 -- -- 85
2018-12-09 12:00:00 7.5 7 Sudoeste 12 Sur 0 -- -- 88
2018-12-09 11:00:00 6.1 6 Oeste 12 Sudoeste 0 -- -- 92
2018-12-09 10:00:00 5.7 5 Sudoeste 12 Sudoeste 0 -- -- 92
2018-12-09 09:00:00 3.9 0 Calma 9 Sur 0 -- -- 93
2018-12-09 08:00:00 3.4 0 Calma 14 Sur 0 -- -- 92
2018-12-09 07:00:00 3.7 9 Sur 19 Sudeste 0 -- -- 91
2018-12-09 06:00:00 4.1 14 Sur 21 Sur 0 -- -- 90
2018-12-09 05:00:00 4.5 12 Sur 21 Sur 0 -- -- 88
2018-12-09 04:00:00 5 14 Sur 22 Sur 0 -- -- 86
2018-12-09 03:00:00 5.4 12 Sur 23 Sur 0 -- -- 84
2018-12-09 02:00:00 4.9 13 Sur 18 Sur 0 -- -- 84
2018-12-09 01:00:00 4.6 11 Sur 14 Sur 0 -- -- 85
2018-12-09 00:00:00 4.4 4 Sudeste 14 Sur 0 -- -- 86
2018-12-08 23:00:00 4.4 12 Sur 15 Sur 0 -- -- 85
2018-12-08 22:00:00 3.6 0 Calma 6 Sur 0 -- -- 88
2018-12-08 21:00:00 4.6 0 Calma 7 Sur 0 -- -- 83
2018-12-08 20:00:00 5.4 5 Sudeste 10 Sur 0 -- -- 80
2018-12-08 19:00:00 6.2 4 Sur 7 Sudoeste 0 -- -- 75
2018-12-08 18:00:00 7.9 5 Sudoeste 13 Sudoeste 0 -- -- 75
2018-12-08 17:00:00 9.9 8 Sudoeste 15 Sudoeste 0 -- -- 64
2018-12-08 16:00:00 10.2 8 Sudoeste 16 Sudoeste 0 -- -- 67
2018-12-08 15:00:00 9.8 9 Sudoeste 18 Sudoeste 0 -- -- 68
2018-12-08 14:00:00 8.6 12 Sudoeste 21 Sudoeste 0 -- -- 74
2018-12-08 13:00:00 7.5 14 Sudoeste 24 Sur 0 -- -- 81
2018-12-08 12:00:00 6.8 13 Sur 19 Sur 0 -- -- 86
2018-12-08 11:00:00 5.6 11 Sudoeste 17 Sur 0 -- -- 93
2018-12-08 10:00:00 5 7 Sudoeste 10 Sudoeste 0 -- -- 95
2018-12-08 09:00:00 5.3 2 Noroeste 12 Sudoeste 0 -- -- 97
2018-12-08 08:00:00 5.1 8 Sudoeste 16 Sur 0 -- -- 97
2018-12-08 07:00:00 5.5 5 Sudoeste 10 Sudoeste 0 -- -- 96
2018-12-08 06:00:00 5.7 4 Oeste 12 Oeste 0 -- -- 96
2018-12-08 05:00:00 5.9 5 Oeste 15 Oeste 0 -- -- 97
2018-12-08 04:00:00 6.3 8 Oeste 15 Oeste 0 -- -- 97
2018-12-08 03:00:00 6.5 9 Oeste 20 Oeste 0 -- -- 98
2018-12-08 02:00:00 6.7 7 Oeste 17 Sudoeste 0 -- -- 98
2018-12-08 01:00:00 6.9 5 Oeste 12 Sudoeste 0 -- -- 98
2018-12-08 00:00:00 6.7 3 Oeste 9 Sudoeste 0 -- -- 97
2018-12-07 23:00:00 6.6 5 Sudoeste 9 Sudoeste 0 -- -- 96
2018-12-07 22:00:00 6.5 6 Sudoeste 11 Sudoeste 0 -- -- 94
2018-12-07 21:00:00 6.8 3 Sudoeste 6 Sur 0 -- -- 93
2018-12-07 20:00:00 6.7 2 Sur 8 Sudoeste 0 -- -- 93
2018-12-07 19:00:00 6.7 5 Sudoeste 8 Sudoeste 0 -- -- 93
2018-12-07 18:00:00 6.6 6 Sudoeste 13 Sudoeste 0 -- -- 92
2018-12-07 17:00:00 6.7 8 Sudoeste 15 Sudoeste 0 -- -- 90
2018-12-07 16:00:00 7.2 7 Sudoeste 16 Oeste 0 -- -- 88
2018-12-07 15:00:00 7.8 8 Oeste 19 Sudoeste 0 -- -- 86
2018-12-07 14:00:00 7.1 10 Sudoeste 21 Sudoeste 0 -- -- 89
2018-12-07 13:00:00 6 12 Sudoeste 26 Sudoeste 0 -- -- 92
2018-12-07 12:00:00 6 15 Sudoeste 26 Sudoeste 0 -- -- 91
2018-12-07 11:00:00 5.3 14 Sur 22 Sur 0 -- -- 95
2018-12-07 10:00:00 4.1 9 Sur 13 Sur 0 -- -- 97
2018-12-07 09:00:00 3.4 4 Sudoeste 18 Sudoeste 0 -- -- 97
2018-12-07 08:00:00 3.2 14 Sur 20 Sudoeste 0 -- -- 96
2018-12-07 07:00:00 3.9 9 Sudoeste 18 Sudoeste 0 -- -- 95
2018-12-07 06:00:00 4.5 10 Sudoeste 19 Sudoeste 0 -- -- 92
2018-12-07 05:00:00 4.8 7 Sudoeste 17 Sudoeste 0 -- -- 90
2018-12-07 04:00:00 5.3 6 Sudoeste 16 Oeste 0 -- -- 89
2018-12-07 03:00:00 5.5 6 Sudoeste 13 Sudoeste 0 -- -- 89
2018-12-07 02:00:00 5.7 9 Sudoeste 14 Sudoeste 0 -- -- 88
2018-12-07 01:00:00 5.9 7 Sudoeste 14 Sudoeste 0 -- -- 91
2018-12-07 00:00:00 6.1 6 Sudoeste 10 Sudoeste 0 -- -- 89
2018-12-06 23:00:00 5.9 4 Sur 7 Sur 0 -- -- 86
2018-12-06 22:00:00 5.9 3 Oeste 6 Noroeste 0 -- -- 86
2018-12-06 21:00:00 6 3 Oeste 8 Oeste 0 -- -- 87
2018-12-06 20:00:00 6.1 2 Oeste 9 Norte 0 -- -- 89
2018-12-06 19:00:00 6.4 3 Noroeste 9 Noroeste 0 -- -- 88
2018-12-06 18:00:00 6.9 4 Noroeste 8 Oeste 0 -- -- 88
2018-12-06 17:00:00 7.5 2 Noroeste 13 Oeste 0 -- -- 86
2018-12-06 16:00:00 8.7 7 Oeste 17 Oeste 0 -- -- 81
2018-12-06 15:00:00 8 6 Oeste 15 Sudoeste 0 -- -- 87
2018-12-06 14:00:00 7.3 4 Sudoeste 13 Sudoeste 0 -- -- 94
2018-12-06 13:00:00 6.6 4 Sudoeste 15 Sur 0 -- -- 98
2018-12-06 12:00:00 6.2 8 Sur 14 Sur 0 -- -- 99
2018-12-06 11:00:00 5.9 5 Sur 13 Sur 0 -- -- 98
2018-12-06 10:00:00 5.6 7 Sur 10 Sur 0 -- -- 98
2018-12-06 09:00:00 5.2 4 Sur 7 Sur 0 -- -- 98
2018-12-06 08:00:00 5.3 2 Sur 7 Sudoeste 0 -- -- 98
2018-12-06 07:00:00 5.6 5 Sudoeste 9 Sudoeste 0 -- -- 97
2018-12-06 06:00:00 5.8 4 Sudoeste 6 Sudoeste 0 -- -- 97
2018-12-06 05:00:00 5.8 5 Sur 9 Sudoeste 0 -- -- 97
2018-12-06 04:00:00 6.2 6 Sudoeste 12 Sudoeste 0 -- -- 97
2018-12-06 03:00:00 6 8 Sur 14 Sudoeste 0 -- -- 96
2018-12-06 02:00:00 5 10 Sur 14 Sur 0 -- -- 96
2018-12-06 01:00:00 5 5 Sur 15 Sur 0 -- -- 96
2018-12-06 00:00:00 4.4 3 Sudeste 6 Sur 0 -- -- 97
2018-12-05 23:00:00 4.6 5 Este 12 Norte 0 -- -- 96
2018-12-05 22:00:00 5.7 3 Sudeste 10 Sur 0 -- -- 94
2018-12-05 21:00:00 6.2 4 Sudeste 7 Sudeste 0 -- -- 94
2018-12-05 20:00:00 6.5 2 Sur 6 Sur 0 -- -- 92
2018-12-05 19:00:00 7.7 3 Sudoeste 15 Noroeste 0 -- -- 87
2018-12-05 18:00:00 10.5 5 Oeste 21 Sudoeste 0 -- -- 77
2018-12-05 17:00:00 13.1 8 Sudoeste 18 Sudoeste 0 -- -- 63
2018-12-05 16:00:00 13.9 10 Sudoeste 27 Sudoeste 0 -- -- 66
2018-12-05 15:00:00 15 13 Sudoeste 24 Sur 0 -- -- 61
2018-12-05 14:00:00 14.1 9 Sudoeste 17 Sudoeste 0 -- -- 64
2018-12-05 13:00:00 12.5 10 Sudoeste 15 Sudoeste 0 -- -- 72
2018-12-05 12:00:00 10.9 5 Sudoeste 8 Sur 0 -- -- 86
2018-12-05 11:00:00 7.2 2 Oeste 4 Sudoeste 0 -- -- 98
2018-12-05 10:00:00 5.1 0 Calma 3 Este 0 -- -- 100
2018-12-05 09:00:00 2.2 0 Calma 3 Oeste 0 -- -- 98
2018-12-05 08:00:00 2.6 0 Calma 5 Sudeste 0 -- -- 99
2018-12-05 07:00:00 2.8 0 Calma 4 Norte 0 -- -- 98
2018-12-05 06:00:00 2.6 2 Este 4 Este 0 -- -- 98
2018-12-05 05:00:00 2.6 3 Norte 5 Norte 0 -- -- 98
2018-12-05 04:00:00 3.1 0 Calma 7 Este 0 -- -- 98
2018-12-05 03:00:00 3.9 2 Norte 6 Norte 0 -- -- 98
2018-12-05 02:00:00 4 0 Calma 3 Sur 0 -- -- 97
2018-12-05 01:00:00 5 0 Calma 2 Sudeste 0 -- -- 97
2018-12-05 00:00:00 6 0 Calma 2 Sudeste 0 -- -- 97
2018-12-04 23:00:00 6.9 0 Calma 5 Nordeste 0 -- -- 97
2018-12-04 22:00:00 7.5 0 Calma 6 Este 0 -- -- 97
2018-12-04 21:00:00 8.9 2 Norte 5 Norte 0 -- -- 97
2018-12-04 20:00:00 9.4 2 Norte 7 Norte 0 -- -- 96
2018-12-04 19:00:00 9.9 4 Norte 8 Norte 0 -- -- 95
2018-12-04 18:00:00 10.9 4 Norte 9 Norte 0 -- -- 90
2018-12-04 17:00:00 13.1 5 Norte 9 Norte 0 -- -- 84
2018-12-04 16:00:00 14.1 3 Norte 7 Noroeste 0 -- -- 82
2018-12-04 15:00:00 13.3 3 Noroeste 8 Norte 0 -- -- 85
2018-12-04 14:00:00 12 3 Oeste 10 Oeste 0 -- -- 88
2018-12-04 13:00:00 10.8 5 Sudoeste 13 Sur 0 -- -- 95
2018-12-04 12:00:00 9 6 Sur 14 Sur 0 -- -- 98
2018-12-04 11:00:00 8.5 4 Sur 10 Sudeste 0 -- -- 98
2018-12-04 10:00:00 8.4 5 Sur 9 Sur 0 -- -- 97
2018-12-04 09:00:00 8.7 4 Sur 9 Sur 0 -- -- 97
2018-12-04 08:00:00 8.9 6 Sur 11 Sur 0 -- -- 96
2018-12-04 07:00:00 9.4 6 Sur 10 Sur 0 -- -- 96
2018-12-04 06:00:00 9.5 4 Sudeste 10 Sudeste 0 -- -- 97
2018-12-04 05:00:00 9.6 2 Sudeste 6 Este 0 -- -- 97
2018-12-04 04:00:00 9.7 5 Sudeste 9 Sudeste 0 -- -- 97
2018-12-04 03:00:00 9.5 4 Sudeste 12 Sudeste 0 -- -- 97
2018-12-04 02:00:00 9.6 8 Sur 10 Sur 0 -- -- 97
2018-12-04 01:00:00 9.5 2 Sudeste 8 Sudeste 0 -- -- 97
2018-12-04 00:00:00 9.4 4 Sudeste 8 Sudeste 0.2 -- -- 97
2018-12-03 23:00:00 9.4 5 Sudeste 8 Sudeste 0 -- -- 97
2018-12-03 22:00:00 9.5 0 Calma 9 Sudeste 0 -- -- 97
2018-12-03 21:00:00 9.4 5 Sudeste 10 Sudeste 0 -- -- 96
2018-12-03 20:00:00 9.4 8 Sur 12 Sur 0 -- -- 96
2018-12-03 19:00:00 9.5 7 Sudoeste 11 Sudoeste 0 -- -- 95
2018-12-03 18:00:00 10 3 Oeste 11 Sudoeste 0 -- -- 92
2018-12-03 17:00:00 10 6 Sur 12 Sudeste 0 -- -- 92
2018-12-03 16:00:00 9.7 7 Sudeste 18 Sur 0 -- -- 92
2018-12-03 15:00:00 9.4 11 Sur 24 Sur 0 -- -- 92
2018-12-03 14:00:00 8.7 9 Sur 15 Sur 0 -- -- 95
2018-12-03 13:00:00 8.3 8 Sur 17 Sudoeste 0 -- -- 95
2018-12-03 12:00:00 7.9 13 Sur 23 Sur 0 -- -- 97
2018-12-03 11:00:00 7.4 16 Sur 24 Sur 0 -- -- 98
2018-12-03 10:00:00 6.8 13 Sur 19 Sur 0 -- -- 98
2018-12-03 09:00:00 6.5 12 Sur 19 Sur 0 -- -- 97
2018-12-03 08:00:00 6.4 14 Sur 23 Sur 0 -- -- 97
2018-12-03 07:00:00 6.6 12 Sur 19 Sur 0 -- -- 96
2018-12-03 06:00:00 6.7 14 Sur 23 Sur 0 -- -- 94
2018-12-03 05:00:00 7 13 Sur 23 Sudeste 0 -- -- 92
2018-12-03 04:00:00 7 14 Sur 20 Sur 0 -- -- 92
2018-12-03 03:00:00 6.8 13 Sur 20 Sur 0 -- -- 93
2018-12-03 02:00:00 6.4 14 Sur 23 Sur 0 -- -- 93
2018-12-03 01:00:00 6 15 Sur 22 Sur 0 -- -- 93
2018-12-03 00:00:00 6.1 14 Sur 20 Sur 0 -- -- 92
2018-12-02 23:00:00 6.4 9 Sur 22 Sur 0 -- -- 91
2018-12-02 22:00:00 6.8 12 Sur 20 Sudoeste 0 -- -- 90
2018-12-02 21:00:00 8.1 14 Sur 21 Sudoeste 0 -- -- 86
2018-12-02 20:00:00 8.4 9 Sur 19 Sudoeste 0 -- -- 86
2018-12-02 19:00:00 8.5 9 Sudoeste 18 Sudoeste 0 -- -- 86
2018-12-02 18:00:00 8.6 7 Sudoeste 31 Sudoeste 0 -- -- 86
2018-12-02 17:00:00 9.3 14 Sudoeste 24 Sudoeste 0 -- -- 82
2018-12-02 16:00:00 8.8 12 Sudoeste 24 Sudoeste 0 -- -- 85
2018-12-02 15:00:00 8.1 6 Sudoeste 19 Sur 0 -- -- 89
2018-12-02 14:00:00 7.2 14 Sur 24 Sur 0 -- -- 92
2018-12-02 13:00:00 6.7 15 Sur 26 Sur 0 -- -- 94
2018-12-02 12:00:00 6.3 17 Sur 26 Sur 0 -- -- 94
2018-12-02 11:00:00 6.1 15 Sur 26 Sur 0 -- -- 94
2018-12-02 10:00:00 5.7 18 Sur 24 Sur 0 -- -- 95
2018-12-02 09:00:00 5.6 17 Sur 25 Sur 0 -- -- 95
2018-12-02 08:00:00 5.6 15 Sur 24 Sur 0 -- -- 95
2018-12-02 07:00:00 5.6 15 Sur 24 Sur 0 -- -- 95
2018-12-02 06:00:00 5.5 13 Sur 20 Sur 0 -- -- 94
2018-12-02 05:00:00 5.5 13 Sur 25 Sudoeste 0 -- -- 94
2018-12-02 04:00:00 6.1 15 Sur 22 Sur 0 -- -- 92
2018-12-02 03:00:00 6.3 12 Sur 20 Sur 0 -- -- 92
2018-12-02 02:00:00 6.8 15 Sur 22 Sur 0 -- -- 91
2018-12-02 01:00:00 6.9 13 Sur 23 Sur 0 -- -- 90
2018-12-02 00:00:00 7.1 15 Sudoeste 26 Sudoeste 0 -- -- 89
2018-12-01 23:00:00 7.4 17 Sur 27 Sur 0 -- -- 89
2018-12-01 22:00:00 7.5 15 Sur 22 Sur 0 -- -- 88
2018-12-01 21:00:00 7.3 13 Sur 22 Sur 0 -- -- 89
2018-12-01 20:00:00 7.2 14 Sudoeste 20 Sur 0 -- -- 89
2018-12-01 19:00:00 7.3 13 Sur 18 Sur 0 -- -- 86
2018-12-01 18:00:00 7.4 10 Sudoeste 18 Sudoeste 0 -- -- 85
2018-12-01 17:00:00 7.9 12 Sudoeste 26 Sudoeste 0 -- -- 83
2018-12-01 16:00:00 7.8 19 Sudoeste 29 Sudoeste 0 -- -- 82
2018-12-01 15:00:00 7.4 13 Sudoeste 24 Sudoeste 0 -- -- 84
2018-12-01 14:00:00 6.4 13 Sudoeste 29 Sudoeste 0 -- -- 88
2018-12-01 13:00:00 5.9 15 Sur 24 Sur 0 -- -- 88
2018-12-01 12:00:00 5.4 17 Sur 26 Sur 0 -- -- 89
2018-12-01 11:00:00 4.5 15 Sur 23 Sur 0 -- -- 92
2018-12-01 10:00:00 4.2 14 Sur 26 Sur 0 -- -- 93
2018-12-01 09:00:00 3.6 15 Sur 26 Sur 0 -- -- 94
2018-12-01 08:00:00 3.6 14 Sur 22 Sur 0 -- -- 94
2018-12-01 07:00:00 3.5 13 Sur 21 Sur 0 -- -- 94
2018-12-01 06:00:00 3.4 11 Sur 19 Sur 0 -- -- 93
2018-12-01 05:00:00 3.2 12 Sur 18 Sur 0 -- -- 93
2018-12-01 04:00:00 3 3 Sur 16 Sur 0 -- -- 93
2018-12-01 03:00:00 2.7 13 Sur 22 Sur 0 -- -- 93
2018-12-01 02:00:00 2.6 13 Sur 17 Sur 0 -- -- 93
2018-12-01 01:00:00 2.7 9 Sur 15 Sur 0 -- -- 93
2018-12-01 00:00:00 2.3 13 Sur 16 Sur 0 -- -- 94
2018-11-30 23:00:00 0.8 0 Calma 8 Sur 0 -- -- 94
2018-11-30 22:00:00 1.7 4 Sudeste 9 Sudeste 0 -- -- 92
2018-11-30 21:00:00 2.2 4 Sudeste 9 Sudeste 0 -- -- 91
2018-11-30 20:00:00 3.3 5 Este 12 Este 0 -- -- 89
2018-11-30 19:00:00 3.8 6 Este 9 Este 0 -- -- 88
2018-11-30 18:00:00 5 5 Este 6 Nordeste 0 -- -- 85
2018-11-30 17:00:00 5.8 3 Norte 8 Sur 0 -- -- 84
2018-11-30 16:00:00 6 3 Sudoeste 8 Sur 0 -- -- 84
2018-11-30 15:00:00 5.2 5 Noroeste 13 Noroeste 0 -- -- 87
2018-11-30 14:00:00 5 8 Oeste 15 Oeste 0 -- -- 86
2018-11-30 13:00:00 5 6 Oeste 13 Sudoeste 0 -- -- 88
2018-11-30 12:00:00 4.5 4 Noroeste 17 Oeste 0 -- -- 88
2018-11-30 11:00:00 4.2 4 Oeste 13 Oeste 0 -- -- 90
2018-11-30 10:00:00 3.8 5 Oeste 13 Oeste 0 -- -- 92
2018-11-30 09:00:00 3.4 5 Sudoeste 9 Oeste 0 -- -- 95
2018-11-30 08:00:00 3 3 Noroeste 17 Oeste 0 -- -- 95
2018-11-30 07:00:00 2.9 9 Oeste 20 Oeste 0 -- -- 94
2018-11-30 06:00:00 3.9 6 Oeste 23 Sudoeste 0 -- -- 92
2018-11-30 05:00:00 4.4 4 Sudoeste 7 Oeste 0 -- -- 94
2018-11-30 04:00:00 4.6 5 Oeste 12 Oeste 0 -- -- 94
2018-11-30 03:00:00 4.7 5 Noroeste 16 Oeste 0 -- -- 95
2018-11-30 02:00:00 4.9 2 Oeste 15 Noroeste 0 -- -- 96
2018-11-30 01:00:00 5.3 7 Oeste 14 Oeste 0.2 -- -- 96
2018-11-30 00:00:00 5.3 6 Sur 10 Sur 1 -- -- 96
2018-11-29 23:00:00 5.2 6 Sudoeste 14 Sudoeste 1.4 -- -- 96
2018-11-29 22:00:00 5.4 9 Sudoeste 22 Sur 0.2 -- -- 94
2018-11-29 21:00:00 5.6 8 Oeste 42 Sur 0.4 -- -- 94
2018-11-29 20:00:00 5.6 25 Sur 38 Sur 2.8 -- -- 93
2018-11-29 19:00:00 6 6 Sur 10 Sudoeste 1.4 -- -- 90
2018-11-29 18:00:00 6.4 5 Sur 17 Sudeste 0.8 -- -- 87
2018-11-29 17:00:00 7 10 Sudeste 15 Sur 1.8 -- -- 81
2018-11-29 16:00:00 8.1 0 Calma 21 Sudoeste 0 -- -- 69
2018-11-29 15:00:00 9.2 10 Oeste 40 Oeste 0 -- -- 59
2018-11-29 14:00:00 11.1 13 Sudoeste 33 Sur 0 -- -- 39
2018-11-29 13:00:00 12.2 15 Sudoeste 26 Sur 0 -- -- 36
2018-11-29 12:00:00 11.1 19 Sur 32 Sur 0 -- -- 39
2018-11-29 11:00:00 9.7 18 Sur 31 Sur 0 -- -- 39
2018-11-29 10:00:00 7 15 Sur 25 Sur 0 -- -- 44
2018-11-29 09:00:00 3.9 15 Sur 23 Sudeste 0 -- -- 52
2018-11-29 08:00:00 4 15 Sur 18 Sur 0 -- -- 49
2018-11-29 07:00:00 2.6 5 Sudeste 15 Sudeste 0 -- -- 57
2018-11-29 06:00:00 2.8 12 Sudeste 18 Sudeste 0 -- -- 59
2018-11-29 05:00:00 2.5 9 Sudeste 16 Sudeste 0 -- -- 64
2018-11-29 04:00:00 3.3 10 Sudeste 21 Sudeste 0 -- -- 60
2018-11-29 03:00:00 4 16 Sudeste 22 Sudeste 0 -- -- 58
2018-11-29 02:00:00 4.2 15 Sur 24 Sur 0 -- -- 58
2018-11-29 01:00:00 4.5 16 Sur 23 Sudeste 0 -- -- 57
2018-11-29 00:00:00 5.1 15 Sur 21 Sur 0 -- -- 55
2018-11-28 23:00:00 4.6 14 Sur 19 Sudeste 0 -- -- 58
2018-11-28 22:00:00 3.2 5 Sur 11 Sudeste 0 -- -- 67
2018-11-28 21:00:00 4.3 7 Sudeste 13 Sudeste 0 -- -- 63
2018-11-28 13:00:00 9.6 12 Sudoeste 25 Sudoeste 0 -- -- 58
2018-11-28 12:00:00 8.5 15 Sudoeste 25 Sur 0 -- -- 64
2018-11-28 11:00:00 7.1 12 Sur 21 Sur 0 -- -- 66
2018-11-28 10:00:00 5.3 13 Sur 19 Sur 0 -- -- 73
2018-11-28 09:00:00 2.7 13 Sur 18 Sudeste 0 -- -- 81
2018-11-28 08:00:00 2.4 13 Sudeste 19 Sur 0 -- -- 81
2018-11-28 07:00:00 2.4 14 Sur 17 Sur 0 -- -- 81
2018-11-28 06:00:00 2.6 9 Sur 17 Sudeste 0 -- -- 81
2018-11-28 05:00:00 2.9 9 Sur 13 Sur 0 -- -- 81
2018-11-28 04:00:00 3.2 8 Sur 13 Sur 0 -- -- 82
2018-11-28 03:00:00 3.3 12 Sur 18 Sur 0 -- -- 81
2018-11-28 02:00:00 3.8 12 Sur 18 Sur 0 -- -- 82
2018-11-28 01:00:00 3.7 14 Sur 19 Sur 0 -- -- 82
2018-11-28 00:00:00 4.2 14 Sur 23 Sur 0 -- -- 81
2018-11-27 23:00:00 4.2 14 Sur 18 Sur 0 -- -- 84
2018-11-27 22:00:00 4.2 12 Sudeste 17 Sudeste 0 -- -- 86
2018-11-27 21:00:00 4.3 9 Sur 13 Sur 0 -- -- 87
2018-11-27 20:00:00 4.8 11 Sudeste 17 Sur 0 -- -- 82
2018-11-27 19:00:00 5.4 12 Sur 15 Sur 0 -- -- 83
2018-11-27 18:00:00 6.1 10 Sudoeste 13 Sur 0 -- -- 80
2018-11-27 17:00:00 7.8 8 Sudoeste 17 Sudoeste 0 -- -- 74
2018-11-27 16:00:00 8.5 12 Sudoeste 20 Sudoeste 0 -- -- 69
2018-11-27 15:00:00 8.4 10 Sudoeste 18 Sudoeste 0 -- -- 70
2018-11-27 14:00:00 7.7 10 Sudoeste 21 Sudoeste 0 -- -- 75
2018-11-27 13:00:00 6.9 9 Sudoeste 18 Sudoeste 0 -- -- 77
2018-11-27 12:00:00 5.4 6 Sur 14 Sur 0 -- -- 85
2018-11-27 11:00:00 3.8 10 Sur 22 Sur 0 -- -- 88
2018-11-27 10:00:00 2.5 13 Sur 17 Sur 0 -- -- 93
2018-11-27 09:00:00 1 9 Sur 12 Sur 0 -- -- 96
2018-11-27 08:00:00 0.7 10 Sur 15 Sudeste 0 -- -- 95
2018-11-27 07:00:00 1 10 Sur 20 Sur 0 -- -- 95
2018-11-27 06:00:00 1.3 14 Sur 21 Sur 0 -- -- 95
2018-11-27 05:00:00 1.3 10 Sur 15 Sur 0 -- -- 95
2018-11-27 04:00:00 0.9 9 Sur 13 Sur 0 -- -- 95
2018-11-27 03:00:00 0.8 3 Sur 7 Sudeste 0 -- -- 95
2018-11-27 02:00:00 0.9 3 Sudoeste 5 Sudeste 0 -- -- 93
2018-11-27 01:00:00 1.7 2 Sudoeste 8 Sur 0 -- -- 92
2018-11-27 00:00:00 2 2 Oeste 6 Sur 0 -- -- 92
2018-11-26 23:00:00 2.9 2 Nordeste 8 Sudoeste 0 -- -- 92
2018-11-26 22:00:00 3.7 0 Calma 6 Nordeste 0 -- -- 90
2018-11-26 21:00:00 4.5 4 Nordeste 10 Nordeste 0 -- -- 87
2018-11-26 20:00:00 5.2 7 Nordeste 15 Nordeste 0 -- -- 85
2018-11-26 19:00:00 6.5 3 Sudeste 10 Nordeste 0 -- -- 80
2018-11-26 18:00:00 7.8 7 Nordeste 17 Noroeste 0 -- -- 76
2018-11-26 17:00:00 8.5 10 Noroeste 27 Oeste 0 -- -- 70
2018-11-26 16:00:00 9 10 Noroeste 24 Noroeste 0 -- -- 67
2018-11-26 15:00:00 8.7 8 Noroeste 21 Noroeste 0 -- -- 70
2018-11-26 14:00:00 7.6 8 Oeste 17 Oeste 0 -- -- 75
2018-11-26 13:00:00 6.8 4 Norte 12 Oeste 0 -- -- 82
2018-11-26 12:00:00 5.9 6 Noroeste 17 Noroeste 0 -- -- 86
2018-11-26 11:00:00 4.1 8 Noroeste 17 Oeste 0 -- -- 91
2018-11-26 10:00:00 3.5 6 Oeste 16 Oeste 0 -- -- 93
2018-11-26 09:00:00 3.2 4 Noroeste 14 Oeste 0 -- -- 94
2018-11-26 08:00:00 2.9 8 Noroeste 23 Noroeste 0.2 -- -- 94
2018-11-26 07:00:00 2.9 8 Noroeste 31 Oeste 0.2 -- -- 93
2018-11-26 06:00:00 3.1 13 Oeste 39 Oeste 0 -- -- 90
2018-11-26 05:00:00 4.1 21 Oeste 46 Oeste 0.2 -- -- 89
2018-11-26 04:00:00 4.9 6 Noroeste 31 Sudoeste 0.4 -- -- 95
2018-11-26 03:00:00 5.4 12 Sur 21 Sudoeste 0.8 -- -- 96
2018-11-26 02:00:00 5.2 8 Sur 12 Sur 1 -- -- 95
2018-11-26 01:00:00 5.2 4 Este 9 Este 0.4 -- -- 93
2018-11-26 00:00:00 5.4 4 Este 8 Nordeste 0.8 -- -- 90
2018-11-25 23:00:00 5.9 0 Calma 15 Sudoeste 1.4 -- -- 88
2018-11-25 22:00:00 6.2 7 Sur 14 Sur 0.2 -- -- 84
2018-11-25 21:00:00 6.1 11 Sur 13 Sur 0 -- -- 85
2018-11-25 20:00:00 6.1 4 Sudoeste 9 Sur 0 -- -- 82
2018-11-25 19:00:00 6.3 7 Sur 11 Sur 0 -- -- 79
2018-11-25 18:00:00 7 6 Sur 9 Sudoeste 0 -- -- 72
2018-11-25 17:00:00 8.4 6 Sudoeste 14 Sudoeste 0 -- -- 63
2018-11-25 16:00:00 10.1 10 Sudoeste 18 Sudoeste 0 -- -- 51
2018-11-25 15:00:00 10.6 9 Oeste 18 Oeste 0 -- -- 50
2018-11-25 14:00:00 9.7 8 Oeste 17 Oeste 0 -- -- 59
2018-11-25 13:00:00 8.8 9 Oeste 18 Oeste 0 -- -- 67
2018-11-25 12:00:00 7.7 3 Oeste 13 Norte 0 -- -- 79
2018-11-25 11:00:00 6.5 7 Norte 19 Noroeste 0 -- -- 93
2018-11-25 10:00:00 6.1 5 Noroeste 13 Noroeste 0 -- -- 97
2018-11-25 09:00:00 5.9 3 Oeste 12 Oeste 0 -- -- 96
2018-11-25 08:00:00 6.7 5 Oeste 15 Oeste 0 -- -- 97
2018-11-25 07:00:00 7.4 4 Oeste 16 Sudoeste 0.4 -- -- 97
2018-11-25 06:00:00 7.4 9 Oeste 30 Sudoeste 0.2 -- -- 97
2018-11-25 05:00:00 6.5 19 Sudoeste 44 Sur 0.4 -- -- 96
2018-11-25 04:00:00 6.5 30 Sur 51 Sur 0.6 -- -- 94
2018-11-25 03:00:00 6.6 26 Sur 44 Sur 0 -- -- 91
2018-11-25 02:00:00 6.5 28 Sur 45 Sur 0 -- -- 87
2018-11-25 01:00:00 6.3 26 Sur 45 Sur 0 -- -- 81
2018-11-25 00:00:00 6.1 26 Sur 42 Sur 0 -- -- 78
2018-11-24 23:00:00 5.5 28 Sur 39 Sur 0.2 -- -- 80
2018-11-24 22:00:00 5.4 23 Sur 36 Sur 0.2 -- -- 81
2018-11-24 21:00:00 5.9 23 Sur 36 Sudoeste 0 -- -- 78
2018-11-24 20:00:00 6.5 22 Sur 32 Sur 0 -- -- 79
2018-11-24 19:00:00 6.2 14 Sur 18 Sur 0 -- -- 82
2018-11-24 18:00:00 7.5 14 Sur 26 Sur 0 -- -- 76
2018-11-24 17:00:00 8.5 14 Sudoeste 26 Sudoeste 0 -- -- 73
2018-11-24 16:00:00 8.3 14 Sudoeste 23 Sudoeste 0 -- -- 75
2018-11-24 15:00:00 7.9 16 Sudoeste 30 Sudoeste 0 -- -- 76
2018-11-24 14:00:00 8 18 Sudoeste 31 Sudoeste 0 -- -- 78
2018-11-24 13:00:00 7.3 19 Sudoeste 30 Sudoeste 0 -- -- 80
2018-11-24 12:00:00 6.5 18 Sur 30 Sur 0 -- -- 85
2018-11-24 11:00:00 5.6 15 Sur 24 Sur 0 -- -- 86
2018-11-24 10:00:00 4.9 14 Sudoeste 26 Sur 0 -- -- 88
2018-11-24 09:00:00 4.5 14 Sur 29 Sur 0 -- -- 89
2018-11-24 08:00:00 4.2 14 Sur 23 Sur 0 -- -- 89
2018-11-24 07:00:00 4.3 11 Sur 19 Sur 0 -- -- 89
2018-11-24 06:00:00 4.1 11 Sur 21 Sur 0 -- -- 89
2018-11-24 05:00:00 4.2 14 Sur 24 Sur 0 -- -- 89
2018-11-24 04:00:00 4.2 14 Sur 24 Sur 0 -- -- 90
2018-11-24 03:00:00 4.3 12 Sur 33 Sudoeste 0 -- -- 90
2018-11-24 02:00:00 4.1 16 Sudoeste 29 Sur 0 -- -- 91
2018-11-24 01:00:00 4.5 19 Sur 34 Sur 0 -- -- 89
2018-11-24 00:00:00 4.8 18 Sudoeste 26 Sudoeste 0 -- -- 89
2018-11-23 23:00:00 4.7 14 Sudoeste 24 Sur 0 -- -- 88
2018-11-23 22:00:00 4.8 14 Sudoeste 22 Sur 0 -- -- 85
2018-11-23 21:00:00 4.4 14 Sur 22 Sudoeste 0 -- -- 85
2018-11-23 20:00:00 4.2 13 Sur 22 Sur 0 -- -- 84
2018-11-23 19:00:00 4.5 12 Sur 21 Sur 0 -- -- 83
2018-11-23 18:00:00 5.8 13 Sudoeste 21 Sudoeste 0 -- -- 78
2018-11-23 17:00:00 7 8 Oeste 23 Sudoeste 0 -- -- 74
2018-11-23 16:00:00 7.2 13 Sudoeste 40 Sudoeste 0 -- -- 73
2018-11-23 15:00:00 7.5 17 Sudoeste 33 Sudoeste 0 -- -- 71
2018-11-23 14:00:00 7 19 Sudoeste 33 Sudoeste 0 -- -- 76
2018-11-23 13:00:00 6.6 18 Sudoeste 36 Sudoeste 0 -- -- 80
2018-11-23 12:00:00 5.6 19 Sudoeste 36 Sudoeste 0 -- -- 89
2018-11-23 11:00:00 4.9 15 Sudoeste 25 Sudoeste 0 -- -- 95
2018-11-23 10:00:00 4 17 Sur 28 Sur 0 -- -- 95
2018-11-23 09:00:00 3.8 18 Sur 26 Sur 0 -- -- 95
2018-11-23 08:00:00 3.7 18 Sur 25 Sur 0.2 -- -- 95
2018-11-23 07:00:00 3.7 15 Sur 19 Sur 1 -- -- 94
2018-11-23 06:00:00 3.7 12 Sur 18 Sudeste 0.8 -- -- 94
2018-11-23 05:00:00 3.7 8 Sudoeste 18 Oeste 2 -- -- 93
2018-11-23 04:00:00 4.5 6 Oeste 19 Oeste 2 -- -- 93
2018-11-23 03:00:00 5.4 6 Noroeste 18 Noroeste 2.8 -- -- 93
2018-11-23 02:00:00 5.8 6 Sur 10 Sur 0.8 -- -- 91
2018-11-23 01:00:00 6.1 7 Sur 15 Sur 0 -- -- 88
2018-11-23 00:00:00 6.2 11 Sur 14 Sur 0 -- -- 86
2018-11-22 23:00:00 6.1 13 Sur 19 Sur 0 -- -- 86
2018-11-22 22:00:00 6.3 14 Sur 21 Sur 0 -- -- 87
2018-11-22 21:00:00 6.4 11 Sur 17 Sur 0 -- -- 87
2018-11-22 20:00:00 6.6 12 Sur 19 Sur 0 -- -- 85
2018-11-22 19:00:00 6.4 9 Sur 14 Sur 0 -- -- 87
2018-11-22 18:00:00 7 9 Sur 21 Sur 0 -- -- 85
2018-11-22 17:00:00 7.9 11 Sur 16 Sudoeste 0 -- -- 81
2018-11-22 16:00:00 8 13 Sudoeste 20 Sudoeste 0 -- -- 80
2018-11-22 15:00:00 8.1 11 Sudoeste 24 Sudoeste 0 -- -- 80
2018-11-22 14:00:00 7.4 11 Sudoeste 21 Sudoeste 0 -- -- 82
2018-11-22 13:00:00 7.2 14 Sur 24 Sur 0 -- -- 81
2018-11-22 12:00:00 6.3 17 Sur 25 Sur 0 -- -- 84
2018-11-22 11:00:00 5.4 12 Sudoeste 23 Sur 0 -- -- 90
2018-11-22 10:00:00 4.9 14 Sur 21 Sur 0 -- -- 84
2018-11-22 09:00:00 4.5 15 Sur 22 Sur 0 -- -- 85
2018-11-22 08:00:00 4.4 15 Sur 19 Sur 0 -- -- 86
2018-11-22 07:00:00 4.6 12 Sudeste 22 Sudeste 0 -- -- 87
2018-11-22 06:00:00 4.2 14 Sur 22 Sur 0 -- -- 90
2018-11-22 05:00:00 4.1 15 Sur 25 Sur 0 -- -- 89
2018-11-22 04:00:00 3.6 14 Sur 28 Sur 0 -- -- 90
2018-11-22 03:00:00 3.5 17 Sur 25 Sur 0 -- -- 90
2018-11-22 02:00:00 4 18 Sur 27 Sur 0 -- -- 89
2018-11-22 01:00:00 4.7 17 Sur 23 Sur 0 -- -- 89
2018-11-22 00:00:00 4.9 15 Sudoeste 26 Sudoeste 0 -- -- 87
2018-11-21 23:00:00 5.1 17 Sur 26 Sur 0 -- -- 87
2018-11-21 22:00:00 5 13 Sur 23 Sur 0 -- -- 90
2018-11-21 21:00:00 5.1 17 Sur 26 Sur 0 -- -- 90
2018-11-21 20:00:00 4.5 12 Sur 26 Sur 0 -- -- 91
2018-11-21 19:00:00 4.9 13 Sur 18 Sur 0 -- -- 91
2018-11-21 18:00:00 6.2 17 Sudoeste 36 Sudoeste 0 -- -- 86
2018-11-21 17:00:00 6 14 Sudoeste 46 Sudoeste 0.8 -- -- 88
2018-11-21 16:00:00 8.5 18 Sudoeste 48 Sur 0 -- -- 75
2018-11-21 15:00:00 9.6 24 Sudoeste 37 Sudoeste 0 -- -- 70
2018-11-21 14:00:00 8.1 17 Sudoeste 35 Sudoeste 0 -- -- 78
2018-11-21 13:00:00 7.5 20 Sudoeste 33 Sudoeste 0 -- -- 82
2018-11-21 12:00:00 7.3 23 Sudoeste 34 Sudoeste 0 -- -- 81
2018-11-21 11:00:00 6.1 26 Sudoeste 45 Sudoeste 0 -- -- 89
2018-11-21 10:00:00 5.8 22 Sudoeste 37 Sur 0 -- -- 92
2018-11-21 09:00:00 5.7 24 Sur 33 Sur 0 -- -- 93
2018-11-21 08:00:00 5.4 12 Sur 24 Sur 0 -- -- 95
2018-11-21 07:00:00 5.5 17 Sudoeste 30 Sudoeste 0.4 -- -- 93
2018-11-21 06:00:00 5.7 17 Sudoeste 39 Sudoeste 0 -- -- 94
2018-11-21 05:00:00 5.7 21 Sudoeste 35 Sudoeste 1 -- -- 94
2018-11-21 04:00:00 6.1 17 Sudoeste 36 Sudoeste 2.4 -- -- 95
2018-11-21 03:00:00 6.4 18 Sudoeste 27 Sudoeste 0 -- -- 93
2018-11-21 02:00:00 6.3 17 Sudoeste 30 Sudoeste 0 -- -- 92
2018-11-21 01:00:00 6.2 17 Sudoeste 29 Sudoeste 0 -- -- 93
2018-11-21 00:00:00 6.1 17 Sudoeste 25 Sudoeste 0 -- -- 94
2018-11-20 23:00:00 6.1 16 Sudoeste 25 Sudoeste 0 -- -- 93
2018-11-20 22:00:00 5.8 13 Sudoeste 19 Sudoeste 0 -- -- 94
2018-11-20 21:00:00 5.2 2 Oeste 8 Oeste 0 -- -- 94
2018-11-20 20:00:00 4.8 4 Este 27 Noroeste 0 -- -- 93
2018-11-20 19:00:00 6.5 17 Sudoeste 46 Noroeste 0 -- -- 89
2018-11-20 18:00:00 7 13 Sudoeste 31 Sudoeste 0 -- -- 92
2018-11-20 17:00:00 6.8 18 Sudoeste 29 Sudoeste 0 -- -- 94
2018-11-20 16:00:00 5.7 7 Sudoeste 25 Oeste 1 -- -- 94
2018-11-20 15:00:00 5.7 13 Oeste 33 Oeste 0.4 -- -- 91
2018-11-20 14:00:00 5.7 9 Oeste 26 Oeste 2.4 -- -- 94
2018-11-20 13:00:00 7.2 12 Sudoeste 20 Sudoeste 0.4 -- -- 95
2018-11-20 12:00:00 6.2 8 Oeste 31 Oeste 0 -- -- 93
2018-11-20 11:00:00 6.5 13 Oeste 31 Oeste 0.2 -- -- 92
2018-11-20 10:00:00 6.6 17 Sudoeste 27 Sudoeste 1 -- -- 94
2018-11-20 09:00:00 6.9 14 Sudoeste 25 Sudoeste 0 -- -- 93
2018-11-20 08:00:00 7.3 15 Sudoeste 20 Sudoeste 0 -- -- 95
2018-11-20 07:00:00 7.4 8 Sudoeste 16 Sudoeste 0 -- -- 96
2018-11-20 06:00:00 6.9 3 Sudoeste 26 Sudoeste 1.4 -- -- 95
2018-11-20 05:00:00 7.2 12 Sudoeste 20 Sudoeste 0 -- -- 96
2018-11-20 04:00:00 7 11 Sudoeste 16 Sudoeste 1.2 -- -- 95
2018-11-20 03:00:00 7.1 5 Sur 14 Sudoeste 1.4 -- -- 94
2018-11-20 02:00:00 7.2 4 Sur 8 Sur 0 -- -- 93
2018-11-20 01:00:00 7.2 0 Calma 3 Oeste 0.2 -- -- 91
2018-11-20 00:00:00 7.2 2 Oeste 10 Norte 0 -- -- 90
2018-11-19 23:00:00 7.3 3 Oeste 6 Sudoeste 0 -- -- 90
2018-11-19 22:00:00 7.1 2 Oeste 5 Sudoeste 0 -- -- 88
2018-11-19 21:00:00 7.3 2 Sudoeste 5 Oeste 0 -- -- 87
2018-11-19 20:00:00 8.2 2 Noroeste 3 Noroeste 0 -- -- 83
2018-11-19 19:00:00 8.6 2 Oeste 6 Noroeste 0 -- -- 82
2018-11-19 18:00:00 8.9 2 Oeste 8 Noroeste 0 -- -- 80
2018-11-19 17:00:00 9.4 4 Noroeste 10 Noroeste 0 -- -- 76
2018-11-19 16:00:00 10 4 Norte 12 Norte 0 -- -- 75
2018-11-19 15:00:00 10 9 Norte 17 Norte 0 -- -- 78
2018-11-19 14:00:00 9.8 8 Norte 19 Norte 0 -- -- 79
2018-11-19 13:00:00 8.9 9 Norte 14 Norte 0 -- -- 83
2018-11-19 12:00:00 8.5 6 Norte 15 Norte 0 -- -- 85
2018-11-19 11:00:00 7.1 10 Nordeste 15 Nordeste 0 -- -- 91
2018-11-19 10:00:00 5.9 8 Nordeste 14 Nordeste 0 -- -- 94
2018-11-19 09:00:00 4.9 6 Nordeste 11 Nordeste 0 -- -- 92
2018-11-19 08:00:00 5.6 3 Norte 10 Este 0 -- -- 89
2018-11-19 07:00:00 6.1 5 Este 14 Este 0 -- -- 88
2018-11-19 06:00:00 6.2 6 Este 23 Sudeste 0 -- -- 88
2018-11-19 05:00:00 6.9 14 Sudeste 27 Este 0 -- -- 87
2018-11-19 04:00:00 7.2 14 Sudeste 29 Sudeste 0 -- -- 86
2018-11-19 03:00:00 7.5 16 Sudeste 35 Sudeste 0 -- -- 86
2018-11-19 02:00:00 7.5 19 Sudeste 35 Este 0.4 -- -- 86
2018-11-19 01:00:00 7.5 18 Sudeste 35 Sudeste 0.2 -- -- 86
2018-11-19 00:00:00 7.6 19 Sudeste 39 Este 0.6 -- -- 86
2018-11-18 23:00:00 7.7 23 Sudeste 40 Este 0.4 -- -- 85
2018-11-18 22:00:00 7.9 22 Sudeste 41 Sudeste 0.2 -- -- 84
2018-11-18 21:00:00 8.4 18 Sudeste 37 Sudeste 0.2 -- -- 84
2018-11-18 20:00:00 9.3 18 Sudeste 32 Sudeste 0 -- -- 79
2018-11-18 19:00:00 9.8 18 Sudeste 33 Sudeste 0 -- -- 79
2018-11-18 18:00:00 10.3 12 Sudeste 29 Sudeste 0 -- -- 72
2018-11-18 17:00:00 10.7 15 Sudeste 33 Sudeste 0 -- -- 71
2018-11-18 16:00:00 11.2 15 Sudeste 40 Sur 0 -- -- 70
2018-11-18 15:00:00 11.5 21 Sudeste 37 Sudeste 0 -- -- 69
2018-11-18 14:00:00 12.9 19 Sudeste 35 Sudeste 0 -- -- 64
2018-11-18 13:00:00 12.8 21 Sur 32 Sur 0 -- -- 68
2018-11-18 12:00:00 10.4 14 Sudeste 25 Sudeste 0 -- -- 79
2018-11-18 11:00:00 9.5 13 Sudeste 26 Este 0 -- -- 81
2018-11-18 10:00:00 8.8 13 Sudeste 22 Este 0 -- -- 85
2018-11-18 09:00:00 7.5 6 Este 19 Sudeste 0 -- -- 88
2018-11-18 08:00:00 6.8 9 Sudeste 17 Este 0 -- -- 91
2018-11-18 07:00:00 6.2 7 Sudeste 14 Este 0 -- -- 90
2018-11-18 06:00:00 6.7 6 Este 14 Sudeste 0 -- -- 88
2018-11-18 05:00:00 6.3 3 Este 19 Sudeste 0 -- -- 91
2018-11-18 04:00:00 7.2 10 Sudeste 17 Sudeste 0 -- -- 88
2018-11-18 03:00:00 6.3 8 Este 14 Este 0 -- -- 91
2018-11-18 02:00:00 5 0 Calma 10 Sudoeste 0 -- -- 92
2018-11-18 01:00:00 6.6 0 Calma 19 Este 0 -- -- 86
2018-11-18 00:00:00 8.2 8 Este 17 Sudeste 0 -- -- 84
2018-11-17 23:00:00 7.3 9 Este 15 Este 0 -- -- 89
2018-11-17 22:00:00 6.7 2 Este 7 Este 0 -- -- 88
2018-11-17 21:00:00 8 0 Calma 9 Este 0 -- -- 84
2018-11-17 20:00:00 9.4 5 Este 10 Este 0 -- -- 82
2018-11-17 19:00:00 10.2 2 Norte 4 Nordeste 0 -- -- 78
2018-11-17 18:00:00 13.3 0 Calma 3 Sur 0 -- -- 65
2018-11-17 17:00:00 15.1 0 Calma 5 Sudoeste 0 -- -- 60
2018-11-17 16:00:00 14.6 5 Sudoeste 14 Sur 0 -- -- 64
2018-11-17 15:00:00 15.5 9 Sur 23 Sur 0 -- -- 60
2018-11-17 14:00:00 15.2 12 Sur 24 Sur 0 -- -- 61
2018-11-17 13:00:00 14.7 15 Sur 33 Sur 0 -- -- 64
2018-11-17 12:00:00 13.8 19 Sur 33 Sur 0 -- -- 68
2018-11-17 11:00:00 12.6 20 Sur 31 Sur 0 -- -- 73
2018-11-17 10:00:00 11 17 Sudeste 29 Sudeste 0 -- -- 79
2018-11-17 09:00:00 8.6 14 Este 26 Este 0 -- -- 88
2018-11-17 08:00:00 8.2 13 Este 24 Sudeste 0 -- -- 89
2018-11-17 07:00:00 8.3 14 Sudeste 23 Sudeste 0 -- -- 88
2018-11-17 06:00:00 7.5 9 Este 14 Este 0 -- -- 90
2018-11-17 05:00:00 8 4 Nordeste 17 Sudeste 0 -- -- 89
2018-11-17 04:00:00 9.3 12 Sudeste 23 Sudeste 0 -- -- 86
2018-11-17 03:00:00 9 14 Sudeste 21 Sudeste 0 -- -- 88
2018-11-17 02:00:00 8.4 9 Este 16 Este 0 -- -- 89
2018-11-17 01:00:00 9 6 Este 18 Este 0 -- -- 86
2018-11-17 00:00:00 9.7 9 Sudeste 19 Sudeste 0 -- -- 86
2018-11-16 23:00:00 10.2 9 Sudeste 21 Sudeste 0 -- -- 86
2018-11-16 22:00:00 10.2 10 Sudeste 20 Sudeste 0 -- -- 88
2018-11-16 21:00:00 10.4 7 Sudeste 14 Sudeste 0 -- -- 83
2018-11-16 20:00:00 10.8 6 Sudeste 10 Sudeste 0 -- -- 83
2018-11-16 19:00:00 11.5 3 Este 10 Este 0 -- -- 80
2018-11-16 18:00:00 12.4 3 Sudeste 7 Sudeste 0 -- -- 75
2018-11-16 17:00:00 13.4 5 Sudoeste 22 Sudoeste 0 -- -- 72
2018-11-16 16:00:00 15 14 Sur 22 Sur 0 -- -- 67
2018-11-16 15:00:00 15.5 7 Sur 16 Sudeste 0 -- -- 65
2018-11-16 14:00:00 15.9 9 Sur 20 Sur 0 -- -- 63
2018-11-16 13:00:00 15.9 4 Sur 19 Sur 0 -- -- 64
2018-11-16 12:00:00 14.3 12 Sur 20 Sur 0 -- -- 69
2018-11-16 11:00:00 13.9 9 Sur 15 Sur 0 -- -- 72
2018-11-16 10:00:00 11.8 6 Sudeste 14 Este 0 -- -- 81
2018-11-16 09:00:00 8 4 Sudeste 10 Sudeste 0 -- -- 95
2018-11-16 08:00:00 7.5 5 Sudeste 18 Este 0 -- -- 97
2018-11-16 07:00:00 6.6 9 Nordeste 17 Nordeste 0 -- -- 95
2018-11-16 06:00:00 7.4 5 Nordeste 10 Sudeste 0 -- -- 91
2018-11-16 05:00:00 8.6 6 Sudeste 13 Sudeste 0 -- -- 90
2018-11-16 04:00:00 8.5 5 Sudeste 10 Sudeste 0 -- -- 90
2018-11-16 03:00:00 9 3 Sur 8 Sudeste 0 -- -- 89
2018-11-16 02:00:00 9 5 Este 9 Nordeste 0 -- -- 90
2018-11-16 01:00:00 8.1 2 Nordeste 4 Nordeste 0 -- -- 90
2018-11-16 00:00:00 8.7 3 Nordeste 6 Nordeste 0 -- -- 89
2018-11-15 23:00:00 9.4 3 Este 13 Este 0 -- -- 83
2018-11-15 22:00:00 10.3 4 Nordeste 12 Este 0 -- -- 82
2018-11-15 21:00:00 11.4 7 Sudeste 12 Sudeste 0 -- -- 78
2018-11-15 20:00:00 11.8 6 Este 12 Este 0 -- -- 76
2018-11-15 19:00:00 12.3 7 Este 11 Este 0 -- -- 72
2018-11-15 18:00:00 13.6 5 Sudeste 11 Sur 0 -- -- 67
2018-11-15 17:00:00 14.7 9 Sur 15 Sur 0 -- -- 64
2018-11-15 16:00:00 15.5 11 Sur 22 Sur 0 -- -- 62
2018-11-15 15:00:00 16.6 7 Sudeste 25 Sur 0 -- -- 57
2018-11-15 14:00:00 16.3 12 Sudeste 23 Sudeste 0 -- -- 58
2018-11-15 13:00:00 15.8 12 Sur 24 Sur 0 -- -- 63
2018-11-15 12:00:00 14.4 15 Sur 25 Sur 0 -- -- 69
2018-11-15 11:00:00 12.7 9 Sur 14 Sudeste 0 -- -- 77
2018-11-15 10:00:00 10.2 2 Nordeste 9 Este 0 -- -- 89
2018-11-15 09:00:00 8.6 0 Calma 5 Sur 0 -- -- 90
2018-11-15 08:00:00 9 5 Sudeste 13 Sudeste 0 -- -- 87
2018-11-15 07:00:00 9.2 9 Este 19 Sudeste 0 -- -- 87
2018-11-15 06:00:00 9.3 8 Este 20 Sudeste 0 -- -- 88
2018-11-15 05:00:00 9.1 10 Sudeste 17 Sudeste 0 -- -- 89
2018-11-15 04:00:00 9.3 5 Sudeste 15 Sudeste 0 -- -- 88
2018-11-15 03:00:00 9.9 10 Sudeste 21 Sudeste 0 -- -- 87
2018-11-15 02:00:00 10.2 12 Sudeste 25 Sudeste 0 -- -- 87
2018-11-15 01:00:00 10.4 15 Sudeste 25 Sudeste 0 -- -- 86
2018-11-15 00:00:00 10.2 8 Este 20 Sudeste 0 -- -- 87
2018-11-14 23:00:00 9.8 10 Sudeste 18 Sudeste 0 -- -- 87
2018-11-14 22:00:00 9.3 6 Sudeste 13 Sudeste 0 -- -- 86
2018-11-14 21:00:00 10.3 4 Sudeste 11 Sudeste 0 -- -- 82
2018-11-14 20:00:00 11.3 4 Sudeste 8 Sudeste 0 -- -- 78
2018-11-14 19:00:00 12.4 4 Sudeste 7 Sudeste 0 -- -- 77
2018-11-14 18:00:00 13.8 4 Sudeste 15 Sur 0 -- -- 71
2018-11-14 17:00:00 15.8 11 Sur 19 Sur 0 -- -- 63
2018-11-14 16:00:00 15.9 11 Sur 20 Sur 0 -- -- 64
2018-11-14 15:00:00 15.7 13 Sur 25 Sur 0 -- -- 61
2018-11-14 14:00:00 15.6 17 Sur 26 Sur 0 -- -- 64
2018-11-14 13:00:00 14.7 11 Sur 18 Sur 0 -- -- 70
2018-11-14 12:00:00 11.4 3 Norte 6 Oeste 0 -- -- 83
2018-11-14 11:00:00 8.7 2 Noroeste 3 Noroeste 0 -- -- 94
2018-11-14 10:00:00 6.1 0 Calma 4 Sur 0 -- -- 99
2018-11-14 09:00:00 3.1 0 Calma 4 Sudoeste 0 -- -- 98
2018-11-14 08:00:00 2.8 0 Calma 6 Nordeste 0 -- -- 97
2018-11-14 07:00:00 2.8 3 Nordeste 8 Este 0 -- -- 98
2018-11-14 06:00:00 2.9 2 Este 6 Nordeste 0 -- -- 97
2018-11-14 05:00:00 2.8 0 Calma 4 Norte 0 -- -- 96
2018-11-14 04:00:00 3.1 0 Calma 3 Norte 0 -- -- 97
2018-11-14 03:00:00 3.8 0 Calma 4 Este 0 -- -- 97
2018-11-14 02:00:00 4 3 Este 6 Nordeste 0 -- -- 96
2018-11-14 01:00:00 4.5 0 Calma 6 Este 0 -- -- 96
2018-11-14 00:00:00 4.8 3 Nordeste 9 Este 0 -- -- 96
2018-11-13 23:00:00 5.5 3 Nordeste 8 Nordeste 0 -- -- 96
2018-11-13 22:00:00 6.4 4 Nordeste 7 Norte 0 -- -- 95
2018-11-13 21:00:00 7.3 5 Nordeste 10 Nordeste 0 -- -- 93
2018-11-13 20:00:00 8.8 2 Nordeste 8 Nordeste 0 -- -- 91
2018-11-13 19:00:00 9.8 8 Nordeste 15 Este 0 -- -- 90
2018-11-13 18:00:00 11.2 7 Nordeste 18 Norte 0 -- -- 86
2018-11-13 17:00:00 13.3 9 Norte 20 Norte 0 -- -- 78
2018-11-13 16:00:00 14.8 8 Norte 15 Norte 0 -- -- 73
2018-11-13 15:00:00 14.7 4 Noroeste 13 Sudoeste 0 -- -- 71
2018-11-13 14:00:00 14.2 8 Sur 15 Sur 0 -- -- 74
2018-11-13 13:00:00 13.1 0 Calma 10 Norte 0 -- -- 77
2018-11-13 12:00:00 11.9 6 Norte 18 Nordeste 0 -- -- 81
2018-11-13 11:00:00 10.2 12 Nordeste 21 Nordeste 0 -- -- 89
2018-11-13 10:00:00 8.5 14 Nordeste 21 Nordeste 0 -- -- 93
2018-11-13 09:00:00 7.3 8 Nordeste 13 Nordeste 0 -- -- 96
2018-11-13 08:00:00 6.9 5 Nordeste 14 Nordeste 0 -- -- 95
2018-11-13 07:00:00 7.5 10 Nordeste 18 Nordeste 0 -- -- 95
2018-11-13 06:00:00 7.8 8 Nordeste 20 Nordeste 0 -- -- 96
2018-11-13 05:00:00 7.2 4 Norte 10 Norte 0 -- -- 96
2018-11-13 04:00:00 7.9 6 Nordeste 11 Nordeste 0 -- -- 96
2018-11-13 03:00:00 8.2 5 Nordeste 9 Nordeste 0 -- -- 96
2018-11-13 02:00:00 8.2 6 Nordeste 12 Noroeste 0 -- -- 96
2018-11-13 01:00:00 8.5 3 Noroeste 14 Este 0 -- -- 95
2018-11-13 00:00:00 8.5 9 Este 15 Este 0 -- -- 96
2018-11-12 23:00:00 8.5 9 Este 13 Este 0 -- -- 96
2018-11-12 22:00:00 8.6 4 Norte 9 Noroeste 0 -- -- 95
2018-11-12 21:00:00 9.1 4 Norte 9 Norte 0 -- -- 95
2018-11-12 20:00:00 9.3 5 Norte 10 Oeste 0.8 -- -- 95
2018-11-12 19:00:00 9.9 3 Oeste 10 Oeste 0 -- -- 94
2018-11-12 18:00:00 10.6 3 Noroeste 10 Sur 0.2 -- -- 91
2018-11-12 17:00:00 11 6 Sur 21 Sudeste 0.2 -- -- 88
2018-11-12 16:00:00 11.6 16 Sur 26 Sur 0 -- -- 82
2018-11-12 15:00:00 11.7 13 Sudeste 22 Sudeste 0.2 -- -- 85
2018-11-12 14:00:00 11.1 11 Sudeste 19 Sudeste 0 -- -- 85
2018-11-12 13:00:00 10.8 10 Sudeste 27 Sudeste 0 -- -- 88
2018-11-12 12:00:00 10.4 13 Sudeste 19 Sudeste 0 -- -- 89
2018-11-12 11:00:00 9.7 8 Sur 15 Sur 0 -- -- 90
2018-11-12 10:00:00 9.3 12 Sur 19 Sudeste 0 -- -- 91
2018-11-12 09:00:00 8.3 9 Sur 17 Sur 0 -- -- 94
2018-11-12 08:00:00 8 9 Sur 14 Sudeste 0 -- -- 95
2018-11-12 07:00:00 8.2 8 Sur 10 Sur 0.2 -- -- 95
2018-11-12 06:00:00 8.3 4 Sudoeste 14 Sur 0.4 -- -- 93
2018-11-12 05:00:00 8.5 11 Sur 22 Sur 0 -- -- 92
2018-11-12 04:00:00 8.1 15 Sur 25 Sudeste 0.2 -- -- 93
2018-11-12 03:00:00 7.7 15 Sudeste 23 Sudeste 0 -- -- 95
2018-11-12 02:00:00 7.7 10 Sudeste 15 Sudoeste 1 -- -- 95
2018-11-12 01:00:00 8.1 8 Oeste 29 Sur 0.8 -- -- 93
2018-11-12 00:00:00 11.5 20 Sur 35 Sur 0 -- -- 78
2018-11-11 23:00:00 11.5 21 Sur 35 Sur 0 -- -- 78
2018-11-11 22:00:00 11.4 19 Sur 33 Sur 0 -- -- 80
2018-11-11 21:00:00 11.3 21 Sur 33 Sur 0 -- -- 81
2018-11-11 20:00:00 11.3 22 Sur 35 Sudeste 0 -- -- 82
2018-11-11 19:00:00 11.4 19 Sur 32 Sudeste 0 -- -- 85
2018-11-11 18:00:00 11 12 Sur 30 Sudeste 0.2 -- -- 89
2018-11-11 17:00:00 11.4 20 Sudeste 32 Sudeste 0.4 -- -- 89
2018-11-11 16:00:00 11.6 18 Sur 37 Sur 0.4 -- -- 90
2018-11-11 15:00:00 12 26 Sur 40 Sur 0.2 -- -- 86
2018-11-11 14:00:00 12.5 18 Sur 27 Sur 0 -- -- 82
2018-11-11 13:00:00 12.8 19 Sur 34 Sur 0 -- -- 78
2018-11-11 12:00:00 11.7 21 Sur 27 Sudeste 0 -- -- 82
2018-11-11 11:00:00 10.9 17 Sur 33 Sur 0 -- -- 85
2018-11-11 10:00:00 10.2 17 Sur 28 Sur 0 -- -- 88
2018-11-11 09:00:00 9.7 16 Sur 26 Sur 0 -- -- 89
2018-11-11 08:00:00 9.5 17 Sur 36 Sur 0 -- -- 88
2018-11-11 07:00:00 9.4 22 Sur 30 Sur 0 -- -- 93
2018-11-11 06:00:00 9.4 18 Sur 32 Sur 0 -- -- 92
2018-11-11 05:00:00 9 20 Sur 31 Sur 0 -- -- 93
2018-11-11 04:00:00 8.8 18 Sur 30 Sur 0 -- -- 90
2018-11-11 03:00:00 8 16 Sudeste 29 Sur 0 -- -- 90
2018-11-11 02:00:00 8 19 Sur 25 Sudoeste 0 -- -- 89
2018-11-11 01:00:00 8.2 17 Sur 24 Sur 0 -- -- 89
2018-11-11 00:00:00 8.1 16 Sur 33 Sur 0 -- -- 90
2018-11-10 23:00:00 8.5 19 Sur 33 Sudoeste 0 -- -- 89
2018-11-10 22:00:00 9.1 18 Sudoeste 32 Sur 0 -- -- 91
2018-11-10 21:00:00 9.8 18 Sudoeste 31 Sudoeste 0 -- -- 89
2018-11-10 20:00:00 9.8 12 Sur 31 Sudoeste 0 -- -- 89
2018-11-10 19:00:00 10.2 21 Sudoeste 43 Sudoeste 0 -- -- 86
2018-11-10 18:00:00 10.9 27 Sudoeste 52 Sudoeste 0 -- -- 83
2018-11-10 17:00:00 11.8 30 Sudoeste 54 Sudoeste 0 -- -- 83
2018-11-10 16:00:00 11.3 24 Sudoeste 44 Sudoeste 0.2 -- -- 93
2018-11-10 15:00:00 10.4 24 Sudoeste 42 Sudoeste 0.2 -- -- 91
2018-11-10 14:00:00 10.7 27 Sudoeste 46 Sudoeste 0.8 -- -- 91
2018-11-10 13:00:00 11.3 26 Sudoeste 44 Sudoeste 0.2 -- -- 90
2018-11-10 12:00:00 11 26 Sudoeste 48 Sudoeste 0 -- -- 89
2018-11-10 11:00:00 10.7 24 Sudoeste 39 Sudoeste 0 -- -- 90
2018-11-10 10:00:00 10 25 Sudoeste 48 Sudoeste 0.2 -- -- 94
2018-11-10 09:00:00 10.1 31 Sudoeste 48 Sur 0 -- -- 90
2018-11-10 08:00:00 10 30 Sudoeste 57 Sur 0 -- -- 88
2018-11-10 07:00:00 10.5 32 Sudoeste 54 Sudoeste 0 -- -- 83
2018-11-10 06:00:00 10.3 33 Sudoeste 52 Sudoeste 0 -- -- 83
2018-11-10 05:00:00 9.8 30 Sur 46 Sur 0 -- -- 85
2018-11-10 04:00:00 9 23 Sur 36 Sur 0 -- -- 88
2018-11-10 03:00:00 8.8 24 Sur 50 Sur 0 -- -- 89
2018-11-10 02:00:00 9 27 Sur 40 Sur 0 -- -- 89
2018-11-10 01:00:00 8.4 22 Sur 37 Sur 0 -- -- 92
2018-11-10 00:00:00 7.8 18 Sur 36 Sudoeste 0 -- -- 93